sensor_id;sensor_type;location;lat;lon;timestamp;P1;durP1;ratioP1;P2;durP2;ratioP2
7173;SDS011;3628;48.654;8.932;2023-02-28T00:00:18;1.83;;;1.23;;
7173;SDS011;3628;48.654;8.932;2023-02-28T00:02:44;1.93;;;1.23;;
7173;SDS011;3628;48.654;8.932;2023-02-28T00:05:11;2.37;;;1.47;;
7173;SDS011;3628;48.654;8.932;2023-02-28T00:07:39;2.17;;;1.47;;
7173;SDS011;3628;48.654;8.932;2023-02-28T00:10:05;1.53;;;1.37;;
7173;SDS011;3628;48.654;8.932;2023-02-28T00:12:32;2.00;;;1.63;;
7173;SDS011;3628;48.654;8.932;2023-02-28T00:14:59;1.70;;;1.47;;
7173;SDS011;3628;48.654;8.932;2023-02-28T00:17:24;1.50;;;1.27;;
7173;SDS011;3628;48.654;8.932;2023-02-28T00:19:50;1.83;;;1.20;;
7173;SDS011;3628;48.654;8.932;2023-02-28T00:22:16;3.53;;;1.50;;
7173;SDS011;3628;48.654;8.932;2023-02-28T00:24:44;2.73;;;1.67;;
7173;SDS011;3628;48.654;8.932;2023-02-28T00:27:10;2.07;;;1.40;;
7173;SDS011;3628;48.654;8.932;2023-02-28T00:29:36;2.87;;;1.47;;
7173;SDS011;3628;48.654;8.932;2023-02-28T00:32:02;4.03;;;1.53;;
7173;SDS011;3628;48.654;8.932;2023-02-28T00:34:27;1.60;;;1.50;;
7173;SDS011;3628;48.654;8.932;2023-02-28T00:36:53;4.90;;;1.60;;
7173;SDS011;3628;48.654;8.932;2023-02-28T00:39:19;2.33;;;1.33;;
7173;SDS011;3628;48.654;8.932;2023-02-28T00:41:44;2.13;;;1.40;;
7173;SDS011;3628;48.654;8.932;2023-02-28T00:44:10;2.30;;;1.67;;
7173;SDS011;3628;48.654;8.932;2023-02-28T00:46:36;2.03;;;1.30;;
7173;SDS011;3628;48.654;8.932;2023-02-28T00:49:01;1.87;;;1.30;;
7173;SDS011;3628;48.654;8.932;2023-02-28T00:51:27;2.37;;;1.60;;
7173;SDS011;3628;48.654;8.932;2023-02-28T00:53:52;1.60;;;1.43;;
7173;SDS011;3628;48.654;8.932;2023-02-28T00:56:18;1.73;;;1.30;;
7173;SDS011;3628;48.654;8.932;2023-02-28T00:58:44;3.37;;;1.47;;
7173;SDS011;3628;48.654;8.932;2023-02-28T01:01:09;2.40;;;1.40;;
7173;SDS011;3628;48.654;8.932;2023-02-28T01:03:35;3.00;;;1.43;;
7173;SDS011;3628;48.654;8.932;2023-02-28T01:06:00;1.33;;;1.07;;
7173;SDS011;3628;48.654;8.932;2023-02-28T01:08:26;3.63;;;1.50;;
7173;SDS011;3628;48.654;8.932;2023-02-28T01:10:52;2.23;;;1.50;;
7173;SDS011;3628;48.654;8.932;2023-02-28T01:13:18;2.03;;;1.73;;
7173;SDS011;3628;48.654;8.932;2023-02-28T01:15:51;2.73;;;1.50;;
7173;SDS011;3628;48.654;8.932;2023-02-28T01:18:19;2.20;;;1.33;;
7173;SDS011;3628;48.654;8.932;2023-02-28T01:20:45;1.63;;;1.40;;
7173;SDS011;3628;48.654;8.932;2023-02-28T01:23:11;2.37;;;1.60;;
7173;SDS011;3628;48.654;8.932;2023-02-28T01:25:36;3.80;;;1.53;;
7173;SDS011;3628;48.654;8.932;2023-02-28T01:28:02;3.53;;;1.43;;
7173;SDS011;3628;48.654;8.932;2023-02-28T01:30:28;3.77;;;1.50;;
7173;SDS011;3628;48.654;8.932;2023-02-28T01:32:53;2.07;;;1.47;;
7173;SDS011;3628;48.654;8.932;2023-02-28T01:35:19;1.87;;;1.40;;
7173;SDS011;3628;48.654;8.932;2023-02-28T01:37:45;3.70;;;1.33;;
7173;SDS011;3628;48.654;8.932;2023-02-28T01:40:11;4.10;;;1.70;;
7173;SDS011;3628;48.654;8.932;2023-02-28T01:42:37;1.90;;;1.30;;
7173;SDS011;3628;48.654;8.932;2023-02-28T01:45:14;2.73;;;1.50;;
7173;SDS011;3628;48.654;8.932;2023-02-28T01:47:50;1.67;;;1.40;;
7173;SDS011;3628;48.654;8.932;2023-02-28T01:50:20;1.73;;;1.20;;
7173;SDS011;3628;48.654;8.932;2023-02-28T01:52:50;3.37;;;1.50;;
7173;SDS011;3628;48.654;8.932;2023-02-28T01:55:19;2.33;;;1.60;;
7173;SDS011;3628;48.654;8.932;2023-02-28T01:57:48;3.10;;;1.50;;
7173;SDS011;3628;48.654;8.932;2023-02-28T02:00:20;1.93;;;1.33;;
7173;SDS011;3628;48.654;8.932;2023-02-28T02:02:49;2.83;;;1.50;;
7173;SDS011;3628;48.654;8.932;2023-02-28T02:05:24;3.00;;;1.77;;
7173;SDS011;3628;48.654;8.932;2023-02-28T02:07:57;3.57;;;1.60;;
7173;SDS011;3628;48.654;8.932;2023-02-28T02:10:40;3.10;;;1.40;;
7173;SDS011;3628;48.654;8.932;2023-02-28T02:13:19;2.50;;;1.70;;
7173;SDS011;3628;48.654;8.932;2023-02-28T02:18:46;3.37;;;1.60;;
7173;SDS011;3628;48.654;8.932;2023-02-28T02:30:08;3.80;;;1.83;;
7173;SDS011;3628;48.654;8.932;2023-02-28T02:33:03;6.47;;;1.90;;
7173;SDS011;3628;48.654;8.932;2023-02-28T02:35:45;2.23;;;1.53;;
7173;SDS011;3628;48.654;8.932;2023-02-28T02:44:20;1.73;;;1.57;;
7173;SDS011;3628;48.654;8.932;2023-02-28T02:46:35;6.80;;;2.00;;
7173;SDS011;3628;48.654;8.932;2023-02-28T02:49:07;1.93;;;1.63;;
7173;SDS011;3628;48.654;8.932;2023-02-28T02:51:35;2.33;;;1.80;;
7173;SDS011;3628;48.654;8.932;2023-02-28T02:54:05;3.13;;;2.17;;
7173;SDS011;3628;48.654;8.932;2023-02-28T02:56:35;2.50;;;1.80;;
7173;SDS011;3628;48.654;8.932;2023-02-28T02:59:04;3.43;;;2.10;;
7173;SDS011;3628;48.654;8.932;2023-02-28T03:01:34;2.47;;;2.00;;
7173;SDS011;3628;48.654;8.932;2023-02-28T03:04:13;2.47;;;1.73;;
7173;SDS011;3628;48.654;8.932;2023-02-28T03:06:43;2.93;;;2.20;;
7173;SDS011;3628;48.654;8.932;2023-02-28T03:09:08;2.73;;;2.00;;
7173;SDS011;3628;48.654;8.932;2023-02-28T03:11:34;3.17;;;1.77;;
7173;SDS011;3628;48.654;8.932;2023-02-28T03:14:08;3.00;;;2.03;;
7173;SDS011;3628;48.654;8.932;2023-02-28T03:19:28;4.00;;;1.97;;
7173;SDS011;3628;48.654;8.932;2023-02-28T03:25:08;2.97;;;1.90;;
7173;SDS011;3628;48.654;8.932;2023-02-28T03:30:33;3.27;;;2.30;;
7173;SDS011;3628;48.654;8.932;2023-02-28T03:35:42;3.63;;;1.97;;
7173;SDS011;3628;48.654;8.932;2023-02-28T03:38:27;3.60;;;2.13;;
7173;SDS011;3628;48.654;8.932;2023-02-28T03:41:00;3.37;;;2.13;;
7173;SDS011;3628;48.654;8.932;2023-02-28T03:43:35;2.90;;;2.40;;
7173;SDS011;3628;48.654;8.932;2023-02-28T03:46:04;3.03;;;2.40;;
7173;SDS011;3628;48.654;8.932;2023-02-28T03:51:07;3.37;;;2.30;;
7173;SDS011;3628;48.654;8.932;2023-02-28T03:53:47;3.10;;;2.50;;
7173;SDS011;3628;48.654;8.932;2023-02-28T03:56:19;3.07;;;2.23;;
7173;SDS011;3628;48.654;8.932;2023-02-28T03:58:54;2.60;;;2.00;;
7173;SDS011;3628;48.654;8.932;2023-02-28T04:01:37;3.50;;;2.33;;
7173;SDS011;3628;48.654;8.932;2023-02-28T04:04:09;3.07;;;2.33;;
7173;SDS011;3628;48.654;8.932;2023-02-28T04:06:35;2.63;;;2.13;;
7173;SDS011;3628;48.654;8.932;2023-02-28T04:09:02;3.07;;;2.13;;
7173;SDS011;3628;48.654;8.932;2023-02-28T04:14:09;3.53;;;2.40;;
7173;SDS011;3628;48.654;8.932;2023-02-28T04:16:36;7.37;;;2.30;;
7173;SDS011;3628;48.654;8.932;2023-02-28T04:19:04;4.53;;;2.37;;
7173;SDS011;3628;48.654;8.932;2023-02-28T04:21:31;2.77;;;1.97;;
7173;SDS011;3628;48.654;8.932;2023-02-28T04:24:02;3.17;;;2.33;;
7173;SDS011;3628;48.654;8.932;2023-02-28T04:26:32;2.93;;;2.20;;
7173;SDS011;3628;48.654;8.932;2023-02-28T04:28:58;4.30;;;2.53;;
7173;SDS011;3628;48.654;8.932;2023-02-28T04:31:24;4.17;;;2.80;;
7173;SDS011;3628;48.654;8.932;2023-02-28T04:33:50;3.27;;;2.47;;
7173;SDS011;3628;48.654;8.932;2023-02-28T04:36:16;3.33;;;2.43;;
7173;SDS011;3628;48.654;8.932;2023-02-28T04:38:44;4.10;;;2.30;;
7173;SDS011;3628;48.654;8.932;2023-02-28T04:41:11;3.80;;;2.47;;
7173;SDS011;3628;48.654;8.932;2023-02-28T04:43:37;3.33;;;2.30;;
7173;SDS011;3628;48.654;8.932;2023-02-28T04:46:03;4.80;;;2.83;;
7173;SDS011;3628;48.654;8.932;2023-02-28T04:48:31;3.30;;;2.70;;
7173;SDS011;3628;48.654;8.932;2023-02-28T04:51:04;3.90;;;2.93;;
7173;SDS011;3628;48.654;8.932;2023-02-28T04:53:32;3.90;;;2.23;;
7173;SDS011;3628;48.654;8.932;2023-02-28T04:55:57;3.57;;;2.60;;
7173;SDS011;3628;48.654;8.932;2023-02-28T04:58:23;4.00;;;2.50;;
7173;SDS011;3628;48.654;8.932;2023-02-28T05:00:52;4.57;;;2.43;;
7173;SDS011;3628;48.654;8.932;2023-02-28T05:03:19;3.27;;;2.50;;
7173;SDS011;3628;48.654;8.932;2023-02-28T05:05:47;3.40;;;2.50;;
7173;SDS011;3628;48.654;8.932;2023-02-28T05:08:12;3.33;;;2.57;;
7173;SDS011;3628;48.654;8.932;2023-02-28T05:10:38;5.47;;;2.50;;
7173;SDS011;3628;48.654;8.932;2023-02-28T05:13:03;4.27;;;2.90;;
7173;SDS011;3628;48.654;8.932;2023-02-28T05:15:29;3.90;;;2.60;;
7173;SDS011;3628;48.654;8.932;2023-02-28T05:17:54;3.23;;;2.57;;
7173;SDS011;3628;48.654;8.932;2023-02-28T05:20:20;6.10;;;2.90;;
7173;SDS011;3628;48.654;8.932;2023-02-28T05:22:46;4.00;;;2.70;;
7173;SDS011;3628;48.654;8.932;2023-02-28T05:25:13;3.87;;;2.40;;
7173;SDS011;3628;48.654;8.932;2023-02-28T05:27:42;7.40;;;2.80;;
7173;SDS011;3628;48.654;8.932;2023-02-28T05:30:08;5.77;;;2.90;;
7173;SDS011;3628;48.654;8.932;2023-02-28T05:32:36;5.40;;;3.33;;
7173;SDS011;3628;48.654;8.932;2023-02-28T05:35:02;3.57;;;2.90;;
7173;SDS011;3628;48.654;8.932;2023-02-28T05:37:28;5.37;;;3.20;;
7173;SDS011;3628;48.654;8.932;2023-02-28T05:39:54;3.97;;;2.83;;
7173;SDS011;3628;48.654;8.932;2023-02-28T05:42:19;5.23;;;3.30;;
7173;SDS011;3628;48.654;8.932;2023-02-28T05:44:45;4.53;;;2.93;;
7173;SDS011;3628;48.654;8.932;2023-02-28T05:47:11;5.27;;;3.60;;
7173;SDS011;3628;48.654;8.932;2023-02-28T05:49:39;7.50;;;3.20;;
7173;SDS011;3628;48.654;8.932;2023-02-28T05:52:04;4.67;;;3.07;;
7173;SDS011;3628;48.654;8.932;2023-02-28T05:54:30;4.10;;;2.93;;
7173;SDS011;3628;48.654;8.932;2023-02-28T05:56:56;4.70;;;3.20;;
7173;SDS011;3628;48.654;8.932;2023-02-28T05:59:21;5.67;;;3.83;;
7173;SDS011;3628;48.654;8.932;2023-02-28T06:01:47;5.60;;;3.23;;
7173;SDS011;3628;48.654;8.932;2023-02-28T06:04:16;5.17;;;3.50;;
7173;SDS011;3628;48.654;8.932;2023-02-28T06:06:47;4.30;;;3.40;;
7173;SDS011;3628;48.654;8.932;2023-02-28T06:09:14;7.70;;;2.93;;
7173;SDS011;3628;48.654;8.932;2023-02-28T06:11:40;7.07;;;3.80;;
7173;SDS011;3628;48.654;8.932;2023-02-28T06:14:06;6.23;;;3.13;;
7173;SDS011;3628;48.654;8.932;2023-02-28T06:16:37;4.50;;;3.20;;
7173;SDS011;3628;48.654;8.932;2023-02-28T06:19:03;5.47;;;3.53;;
7173;SDS011;3628;48.654;8.932;2023-02-28T06:21:29;8.90;;;3.90;;
7173;SDS011;3628;48.654;8.932;2023-02-28T06:23:55;4.47;;;3.50;;
7173;SDS011;3628;48.654;8.932;2023-02-28T06:26:22;6.17;;;3.70;;
7173;SDS011;3628;48.654;8.932;2023-02-28T06:28:48;5.77;;;3.90;;
7173;SDS011;3628;48.654;8.932;2023-02-28T06:31:14;6.57;;;3.23;;
7173;SDS011;3628;48.654;8.932;2023-02-28T06:33:41;5.03;;;3.80;;
7173;SDS011;3628;48.654;8.932;2023-02-28T06:36:09;5.07;;;3.70;;
7173;SDS011;3628;48.654;8.932;2023-02-28T06:38:36;5.60;;;3.97;;
7173;SDS011;3628;48.654;8.932;2023-02-28T06:41:02;4.33;;;3.80;;
7173;SDS011;3628;48.654;8.932;2023-02-28T06:43:29;7.47;;;4.90;;
7173;SDS011;3628;48.654;8.932;2023-02-28T06:45:57;11.03;;;7.37;;
7173;SDS011;3628;48.654;8.932;2023-02-28T06:48:25;8.57;;;4.43;;
7173;SDS011;3628;48.654;8.932;2023-02-28T06:50:51;6.27;;;5.10;;
7173;SDS011;3628;48.654;8.932;2023-02-28T06:53:17;7.43;;;5.63;;
7173;SDS011;3628;48.654;8.932;2023-02-28T06:55:42;6.60;;;5.00;;
7173;SDS011;3628;48.654;8.932;2023-02-28T06:58:08;4.70;;;3.93;;
7173;SDS011;3628;48.654;8.932;2023-02-28T07:00:41;5.10;;;3.80;;
7173;SDS011;3628;48.654;8.932;2023-02-28T07:03:07;4.57;;;3.70;;
7173;SDS011;3628;48.654;8.932;2023-02-28T07:05:34;6.23;;;4.43;;
7173;SDS011;3628;48.654;8.932;2023-02-28T07:08:00;6.60;;;4.50;;
7173;SDS011;3628;48.654;8.932;2023-02-28T07:10:26;5.17;;;4.57;;
7173;SDS011;3628;48.654;8.932;2023-02-28T07:12:52;5.73;;;4.00;;
7173;SDS011;3628;48.654;8.932;2023-02-28T07:15:17;5.67;;;4.20;;
7173;SDS011;3628;48.654;8.932;2023-02-28T07:17:43;5.67;;;4.10;;
7173;SDS011;3628;48.654;8.932;2023-02-28T07:20:09;6.17;;;3.80;;
7173;SDS011;3628;48.654;8.932;2023-02-28T07:22:34;5.27;;;4.03;;
7173;SDS011;3628;48.654;8.932;2023-02-28T07:25:00;6.97;;;4.60;;
7173;SDS011;3628;48.654;8.932;2023-02-28T07:27:26;4.73;;;3.90;;
7173;SDS011;3628;48.654;8.932;2023-02-28T07:29:51;6.90;;;4.23;;
7173;SDS011;3628;48.654;8.932;2023-02-28T07:32:18;5.10;;;3.73;;
7173;SDS011;3628;48.654;8.932;2023-02-28T07:34:44;7.27;;;5.40;;
7173;SDS011;3628;48.654;8.932;2023-02-28T07:37:10;6.77;;;4.90;;
7173;SDS011;3628;48.654;8.932;2023-02-28T07:39:36;6.33;;;4.40;;
7173;SDS011;3628;48.654;8.932;2023-02-28T07:42:05;7.33;;;4.47;;
7173;SDS011;3628;48.654;8.932;2023-02-28T07:44:31;5.27;;;4.60;;
7173;SDS011;3628;48.654;8.932;2023-02-28T07:46:57;7.33;;;4.50;;
7173;SDS011;3628;48.654;8.932;2023-02-28T07:49:22;5.80;;;4.50;;
7173;SDS011;3628;48.654;8.932;2023-02-28T07:51:48;5.53;;;4.30;;
7173;SDS011;3628;48.654;8.932;2023-02-28T07:54:14;5.03;;;4.00;;
7173;SDS011;3628;48.654;8.932;2023-02-28T07:56:39;5.57;;;4.20;;
7173;SDS011;3628;48.654;8.932;2023-02-28T07:59:05;7.57;;;4.53;;
7173;SDS011;3628;48.654;8.932;2023-02-28T08:01:31;6.77;;;4.80;;
7173;SDS011;3628;48.654;8.932;2023-02-28T08:03:57;4.33;;;3.63;;
7173;SDS011;3628;48.654;8.932;2023-02-28T08:06:23;6.50;;;4.33;;
7173;SDS011;3628;48.654;8.932;2023-02-28T08:08:50;6.17;;;4.53;;
7173;SDS011;3628;48.654;8.932;2023-02-28T08:11:16;6.73;;;4.90;;
7173;SDS011;3628;48.654;8.932;2023-02-28T08:13:42;5.33;;;4.33;;
7173;SDS011;3628;48.654;8.932;2023-02-28T08:16:09;6.77;;;4.77;;
7173;SDS011;3628;48.654;8.932;2023-02-28T08:18:35;7.33;;;4.57;;
7173;SDS011;3628;48.654;8.932;2023-02-28T08:21:07;8.30;;;4.80;;
7173;SDS011;3628;48.654;8.932;2023-02-28T08:23:34;12.70;;;5.30;;
7173;SDS011;3628;48.654;8.932;2023-02-28T08:26:00;6.87;;;4.50;;
7173;SDS011;3628;48.654;8.932;2023-02-28T08:28:25;7.37;;;4.33;;
7173;SDS011;3628;48.654;8.932;2023-02-28T08:30:51;7.23;;;4.60;;
7173;SDS011;3628;48.654;8.932;2023-02-28T08:33:16;5.90;;;4.00;;
7173;SDS011;3628;48.654;8.932;2023-02-28T08:35:42;6.90;;;4.87;;
7173;SDS011;3628;48.654;8.932;2023-02-28T08:38:07;5.20;;;4.07;;
7173;SDS011;3628;48.654;8.932;2023-02-28T08:40:33;6.47;;;4.40;;
7173;SDS011;3628;48.654;8.932;2023-02-28T08:42:58;5.00;;;4.13;;
7173;SDS011;3628;48.654;8.932;2023-02-28T08:45:24;6.17;;;4.37;;
7173;SDS011;3628;48.654;8.932;2023-02-28T08:47:50;5.80;;;4.90;;
7173;SDS011;3628;48.654;8.932;2023-02-28T08:50:17;7.97;;;4.87;;
7173;SDS011;3628;48.654;8.932;2023-02-28T08:52:43;6.50;;;4.50;;
7173;SDS011;3628;48.654;8.932;2023-02-28T08:55:09;8.37;;;4.03;;
7173;SDS011;3628;48.654;8.932;2023-02-28T08:57:35;8.00;;;4.80;;
7173;SDS011;3628;48.654;8.932;2023-02-28T09:00:00;7.13;;;4.80;;
7173;SDS011;3628;48.654;8.932;2023-02-28T09:02:29;6.47;;;4.83;;
7173;SDS011;3628;48.654;8.932;2023-02-28T09:04:56;7.80;;;4.60;;
7173;SDS011;3628;48.654;8.932;2023-02-28T09:07:22;7.40;;;4.90;;
7173;SDS011;3628;48.654;8.932;2023-02-28T09:09:47;6.87;;;4.40;;
7173;SDS011;3628;48.654;8.932;2023-02-28T09:12:22;7.17;;;4.73;;
7173;SDS011;3628;48.654;8.932;2023-02-28T09:14:49;5.57;;;4.50;;
7173;SDS011;3628;48.654;8.932;2023-02-28T09:17:15;8.70;;;5.17;;
7173;SDS011;3628;48.654;8.932;2023-02-28T09:19:41;6.10;;;4.80;;
7173;SDS011;3628;48.654;8.932;2023-02-28T09:22:07;7.57;;;5.53;;
7173;SDS011;3628;48.654;8.932;2023-02-28T09:24:33;6.60;;;4.57;;
7173;SDS011;3628;48.654;8.932;2023-02-28T09:27:00;7.30;;;4.80;;
7173;SDS011;3628;48.654;8.932;2023-02-28T09:29:25;7.23;;;5.00;;
7173;SDS011;3628;48.654;8.932;2023-02-28T09:31:51;7.53;;;4.50;;
7173;SDS011;3628;48.654;8.932;2023-02-28T09:34:17;6.67;;;4.93;;
7173;SDS011;3628;48.654;8.932;2023-02-28T09:36:42;7.67;;;4.87;;
7173;SDS011;3628;48.654;8.932;2023-02-28T09:39:08;5.83;;;4.53;;
7173;SDS011;3628;48.654;8.932;2023-02-28T09:41:38;5.67;;;4.10;;
7173;SDS011;3628;48.654;8.932;2023-02-28T09:47:05;8.93;;;4.67;;
7173;SDS011;3628;48.654;8.932;2023-02-28T09:49:37;6.03;;;4.30;;
7173;SDS011;3628;48.654;8.932;2023-02-28T09:52:10;5.43;;;4.50;;
7173;SDS011;3628;48.654;8.932;2023-02-28T09:54:42;5.47;;;4.33;;
7173;SDS011;3628;48.654;8.932;2023-02-28T09:57:19;7.60;;;4.50;;
7173;SDS011;3628;48.654;8.932;2023-02-28T10:02:48;13.30;;;4.93;;
7173;SDS011;3628;48.654;8.932;2023-02-28T10:05:24;7.30;;;4.00;;
7173;SDS011;3628;48.654;8.932;2023-02-28T10:10:50;7.63;;;4.50;;
7173;SDS011;3628;48.654;8.932;2023-02-28T10:15:59;6.63;;;4.50;;
7173;SDS011;3628;48.654;8.932;2023-02-28T10:18:33;6.87;;;4.70;;
7173;SDS011;3628;48.654;8.932;2023-02-28T10:21:12;5.10;;;3.77;;
7173;SDS011;3628;48.654;8.932;2023-02-28T10:23:53;5.37;;;4.33;;
7173;SDS011;3628;48.654;8.932;2023-02-28T10:26:27;6.17;;;4.50;;
7173;SDS011;3628;48.654;8.932;2023-02-28T10:28:55;5.97;;;4.37;;
7173;SDS011;3628;48.654;8.932;2023-02-28T10:31:21;5.87;;;4.23;;
7173;SDS011;3628;48.654;8.932;2023-02-28T10:33:47;7.60;;;4.73;;
7173;SDS011;3628;48.654;8.932;2023-02-28T10:36:16;7.43;;;5.87;;
7173;SDS011;3628;48.654;8.932;2023-02-28T10:38:45;7.93;;;4.97;;
7173;SDS011;3628;48.654;8.932;2023-02-28T10:41:12;9.93;;;5.33;;
7173;SDS011;3628;48.654;8.932;2023-02-28T10:43:52;5.97;;;4.50;;
7173;SDS011;3628;48.654;8.932;2023-02-28T10:46:18;6.33;;;5.00;;
7173;SDS011;3628;48.654;8.932;2023-02-28T10:49:35;7.57;;;5.00;;
7173;SDS011;3628;48.654;8.932;2023-02-28T10:51:44;5.70;;;4.47;;
7173;SDS011;3628;48.654;8.932;2023-02-28T10:54:21;7.00;;;4.43;;
7173;SDS011;3628;48.654;8.932;2023-02-28T10:59:51;5.20;;;4.20;;
7173;SDS011;3628;48.654;8.932;2023-02-28T11:02:35;5.40;;;4.00;;
7173;SDS011;3628;48.654;8.932;2023-02-28T11:05:20;6.23;;;4.60;;
7173;SDS011;3628;48.654;8.932;2023-02-28T11:08:14;7.20;;;4.20;;
7173;SDS011;3628;48.654;8.932;2023-02-28T11:10:48;7.00;;;4.80;;
7173;SDS011;3628;48.654;8.932;2023-02-28T11:13:20;5.83;;;4.30;;
7173;SDS011;3628;48.654;8.932;2023-02-28T11:15:56;6.07;;;4.40;;
7173;SDS011;3628;48.654;8.932;2023-02-28T11:18:26;6.53;;;4.60;;
7173;SDS011;3628;48.654;8.932;2023-02-28T11:20:55;6.83;;;4.87;;
7173;SDS011;3628;48.654;8.932;2023-02-28T11:23:24;6.33;;;4.33;;
7173;SDS011;3628;48.654;8.932;2023-02-28T11:25:52;6.10;;;4.20;;
7173;SDS011;3628;48.654;8.932;2023-02-28T11:28:32;8.93;;;4.30;;
7173;SDS011;3628;48.654;8.932;2023-02-28T11:33:31;6.13;;;4.37;;
7173;SDS011;3628;48.654;8.932;2023-02-28T11:36:10;6.30;;;4.33;;
7173;SDS011;3628;48.654;8.932;2023-02-28T11:38:42;6.93;;;4.27;;
7173;SDS011;3628;48.654;8.932;2023-02-28T11:41:12;6.40;;;4.67;;
7173;SDS011;3628;48.654;8.932;2023-02-28T11:43:58;6.33;;;4.37;;
7173;SDS011;3628;48.654;8.932;2023-02-28T11:51:28;6.33;;;4.83;;
7173;SDS011;3628;48.654;8.932;2023-02-28T11:54:03;7.37;;;4.63;;
7173;SDS011;3628;48.654;8.932;2023-02-28T11:56:48;6.37;;;4.73;;
7173;SDS011;3628;48.654;8.932;2023-02-28T12:10:26;5.27;;;4.20;;
7173;SDS011;3628;48.654;8.932;2023-02-28T12:13:21;7.07;;;5.03;;
7173;SDS011;3628;48.654;8.932;2023-02-28T12:15:58;6.47;;;4.97;;
7173;SDS011;3628;48.654;8.932;2023-02-28T12:21:05;9.17;;;6.27;;
7173;SDS011;3628;48.654;8.932;2023-02-28T12:23:56;7.53;;;4.67;;
7173;SDS011;3628;48.654;8.932;2023-02-28T12:31:42;7.33;;;4.43;;
7173;SDS011;3628;48.654;8.932;2023-02-28T12:34:19;6.17;;;4.73;;
7173;SDS011;3628;48.654;8.932;2023-02-28T12:36:50;6.20;;;4.77;;
7173;SDS011;3628;48.654;8.932;2023-02-28T12:39:20;6.50;;;4.93;;
7173;SDS011;3628;48.654;8.932;2023-02-28T12:42:04;5.10;;;4.30;;
7173;SDS011;3628;48.654;8.932;2023-02-28T12:44:39;5.73;;;4.77;;
7173;SDS011;3628;48.654;8.932;2023-02-28T12:47:11;5.13;;;4.63;;
7173;SDS011;3628;48.654;8.932;2023-02-28T12:49:48;9.30;;;5.67;;
7173;SDS011;3628;48.654;8.932;2023-02-28T12:52:21;6.40;;;4.73;;
7173;SDS011;3628;48.654;8.932;2023-02-28T12:55:19;6.20;;;4.87;;
7173;SDS011;3628;48.654;8.932;2023-02-28T13:00:45;6.57;;;4.97;;
7173;SDS011;3628;48.654;8.932;2023-02-28T13:03:59;7.27;;;5.00;;
7173;SDS011;3628;48.654;8.932;2023-02-28T13:09:22;5.90;;;4.80;;
7173;SDS011;3628;48.654;8.932;2023-02-28T13:11:48;6.07;;;4.13;;
7173;SDS011;3628;48.654;8.932;2023-02-28T13:19:31;7.70;;;5.37;;
7173;SDS011;3628;48.654;8.932;2023-02-28T13:21:59;7.70;;;4.87;;
7173;SDS011;3628;48.654;8.932;2023-02-28T13:34:31;9.77;;;4.90;;
7173;SDS011;3628;48.654;8.932;2023-02-28T13:39:52;5.60;;;4.30;;
7173;SDS011;3628;48.654;8.932;2023-02-28T13:47:43;9.10;;;6.20;;
7173;SDS011;3628;48.654;8.932;2023-02-28T13:55:49;6.87;;;5.13;;
7173;SDS011;3628;48.654;8.932;2023-02-28T14:06:33;7.13;;;4.93;;
7173;SDS011;3628;48.654;8.932;2023-02-28T14:11:33;5.57;;;4.43;;
7173;SDS011;3628;48.654;8.932;2023-02-28T14:14:01;5.77;;;4.77;;
7173;SDS011;3628;48.654;8.932;2023-02-28T14:16:39;6.20;;;4.60;;
7173;SDS011;3628;48.654;8.932;2023-02-28T14:19:13;6.83;;;4.73;;
7173;SDS011;3628;48.654;8.932;2023-02-28T14:27:13;7.10;;;4.73;;
7173;SDS011;3628;48.654;8.932;2023-02-28T14:33:11;6.83;;;5.03;;
7173;SDS011;3628;48.654;8.932;2023-02-28T14:38:33;7.17;;;4.73;;
7173;SDS011;3628;48.654;8.932;2023-02-28T14:41:35;7.47;;;5.07;;
7173;SDS011;3628;48.654;8.932;2023-02-28T14:44:14;7.87;;;5.10;;
7173;SDS011;3628;48.654;8.932;2023-02-28T14:46:45;6.47;;;4.77;;
7173;SDS011;3628;48.654;8.932;2023-02-28T14:49:18;5.50;;;4.53;;
7173;SDS011;3628;48.654;8.932;2023-02-28T14:51:47;6.67;;;4.60;;
7173;SDS011;3628;48.654;8.932;2023-02-28T14:54:15;6.37;;;5.00;;
7173;SDS011;3628;48.654;8.932;2023-02-28T14:56:50;5.50;;;4.77;;
7173;SDS011;3628;48.654;8.932;2023-02-28T14:59:23;5.23;;;4.73;;
7173;SDS011;3628;48.654;8.932;2023-02-28T15:04:40;7.33;;;5.40;;
7173;SDS011;3628;48.654;8.932;2023-02-28T15:07:07;9.60;;;4.73;;
7173;SDS011;3628;48.654;8.932;2023-02-28T15:09:34;6.70;;;5.27;;
7173;SDS011;3628;48.654;8.932;2023-02-28T15:12:00;7.37;;;4.60;;
7173;SDS011;3628;48.654;8.932;2023-02-28T15:14:26;9.17;;;5.23;;
7173;SDS011;3628;48.654;8.932;2023-02-28T15:16:56;7.57;;;4.83;;
7173;SDS011;3628;48.654;8.932;2023-02-28T15:19:32;5.67;;;4.90;;
7173;SDS011;3628;48.654;8.932;2023-02-28T15:27:09;6.67;;;4.33;;
7173;SDS011;3628;48.654;8.932;2023-02-28T15:29:43;6.97;;;4.70;;
7173;SDS011;3628;48.654;8.932;2023-02-28T15:37:57;6.33;;;4.53;;
7173;SDS011;3628;48.654;8.932;2023-02-28T15:40:44;5.83;;;4.80;;
7173;SDS011;3628;48.654;8.932;2023-02-28T15:43:39;5.73;;;4.57;;
7173;SDS011;3628;48.654;8.932;2023-02-28T15:46:06;5.77;;;4.50;;
7173;SDS011;3628;48.654;8.932;2023-02-28T15:48:38;7.50;;;4.93;;
7173;SDS011;3628;48.654;8.932;2023-02-28T15:51:18;8.03;;;4.83;;
7173;SDS011;3628;48.654;8.932;2023-02-28T15:54:00;6.60;;;5.10;;
7173;SDS011;3628;48.654;8.932;2023-02-28T15:56:30;6.70;;;5.07;;
7173;SDS011;3628;48.654;8.932;2023-02-28T15:59:01;7.10;;;5.10;;
7173;SDS011;3628;48.654;8.932;2023-02-28T16:01:31;7.47;;;5.17;;
7173;SDS011;3628;48.654;8.932;2023-02-28T16:04:03;6.03;;;4.87;;
7173;SDS011;3628;48.654;8.932;2023-02-28T16:08:59;6.27;;;4.60;;
7173;SDS011;3628;48.654;8.932;2023-02-28T16:11:24;7.00;;;5.37;;
7173;SDS011;3628;48.654;8.932;2023-02-28T16:13:50;6.47;;;5.43;;
7173;SDS011;3628;48.654;8.932;2023-02-28T16:16:17;8.47;;;5.67;;
7173;SDS011;3628;48.654;8.932;2023-02-28T16:18:44;8.00;;;4.80;;
7173;SDS011;3628;48.654;8.932;2023-02-28T16:21:10;6.27;;;4.40;;
7173;SDS011;3628;48.654;8.932;2023-02-28T16:23:36;5.70;;;4.90;;
7173;SDS011;3628;48.654;8.932;2023-02-28T16:26:02;5.50;;;4.27;;
7173;SDS011;3628;48.654;8.932;2023-02-28T16:28:30;6.77;;;4.93;;
7173;SDS011;3628;48.654;8.932;2023-02-28T16:30:57;6.80;;;4.93;;
7173;SDS011;3628;48.654;8.932;2023-02-28T16:33:27;7.13;;;5.00;;
7173;SDS011;3628;48.654;8.932;2023-02-28T16:35:53;6.63;;;5.30;;
7173;SDS011;3628;48.654;8.932;2023-02-28T16:38:19;6.63;;;5.00;;
7173;SDS011;3628;48.654;8.932;2023-02-28T16:40:44;6.03;;;5.00;;
7173;SDS011;3628;48.654;8.932;2023-02-28T16:43:13;7.00;;;4.80;;
7173;SDS011;3628;48.654;8.932;2023-02-28T16:45:42;8.33;;;4.80;;
7173;SDS011;3628;48.654;8.932;2023-02-28T16:48:10;7.60;;;5.30;;
7173;SDS011;3628;48.654;8.932;2023-02-28T16:50:38;6.23;;;4.83;;
7173;SDS011;3628;48.654;8.932;2023-02-28T16:53:04;6.33;;;4.70;;
7173;SDS011;3628;48.654;8.932;2023-02-28T16:55:29;8.73;;;4.90;;
7173;SDS011;3628;48.654;8.932;2023-02-28T16:57:59;7.10;;;5.00;;
7173;SDS011;3628;48.654;8.932;2023-02-28T17:00:26;8.10;;;5.27;;
7173;SDS011;3628;48.654;8.932;2023-02-28T17:02:53;9.20;;;5.30;;
7173;SDS011;3628;48.654;8.932;2023-02-28T17:05:19;6.77;;;5.27;;
7173;SDS011;3628;48.654;8.932;2023-02-28T17:07:46;7.37;;;5.73;;
7173;SDS011;3628;48.654;8.932;2023-02-28T17:10:14;7.13;;;6.17;;
7173;SDS011;3628;48.654;8.932;2023-02-28T17:12:42;9.50;;;4.90;;
7173;SDS011;3628;48.654;8.932;2023-02-28T17:15:09;6.93;;;5.33;;
7173;SDS011;3628;48.654;8.932;2023-02-28T17:17:36;9.43;;;5.60;;
7173;SDS011;3628;48.654;8.932;2023-02-28T17:20:02;7.73;;;5.20;;
7173;SDS011;3628;48.654;8.932;2023-02-28T17:22:29;6.77;;;5.87;;
7173;SDS011;3628;48.654;8.932;2023-02-28T17:24:55;8.13;;;5.80;;
7173;SDS011;3628;48.654;8.932;2023-02-28T17:27:20;10.07;;;5.57;;
7173;SDS011;3628;48.654;8.932;2023-02-28T17:29:46;8.47;;;6.40;;
7173;SDS011;3628;48.654;8.932;2023-02-28T17:32:12;8.90;;;5.83;;
7173;SDS011;3628;48.654;8.932;2023-02-28T17:34:37;6.03;;;5.27;;
7173;SDS011;3628;48.654;8.932;2023-02-28T17:37:03;8.13;;;5.23;;
7173;SDS011;3628;48.654;8.932;2023-02-28T17:39:28;7.47;;;5.80;;
7173;SDS011;3628;48.654;8.932;2023-02-28T17:41:55;9.20;;;5.63;;
7173;SDS011;3628;48.654;8.932;2023-02-28T17:44:21;7.20;;;5.30;;
7173;SDS011;3628;48.654;8.932;2023-02-28T17:46:48;8.30;;;5.63;;
7173;SDS011;3628;48.654;8.932;2023-02-28T17:49:15;8.93;;;5.90;;
7173;SDS011;3628;48.654;8.932;2023-02-28T17:51:41;8.57;;;5.30;;
7173;SDS011;3628;48.654;8.932;2023-02-28T17:54:07;8.27;;;5.87;;
7173;SDS011;3628;48.654;8.932;2023-02-28T17:56:32;8.40;;;5.77;;